Skip Navigation LinksHome page > Weather > Current weather Skip Navigation Links

Current Weather

Central Park, New York

For information only: do not use for flight planning or navigation.
Latest weather
Observation time Friday, December 3, 2021 4:51 AM EST
Local time Friday, December 3, 2021 5:13 AM EST
Flight conditions Visual Meteorological Conditions
Winds
Wind direction West (280°)
Winds variable from 250° to 340°
Wind speed 9 mph
Wind gusting to 20 mph
Visibility 10 mi.
Sky condition
Ceiling unlimited
Sky clear
Temperature 44°F
Dewpoint 24°F
Altimeter 29.81 in.Hg
Derived measurements
Relative humidity 45%
Wind chill 39°F
Density altitude -642 ft.
Sea-level pressure 29.79 in.Hg
Remarks
Fully automated report.
Automated weather observing station with precipitation discriminator.
METAR KNYC 030951Z AUTO 28008G17KT 250V340 10SM CLR 07/M04 A2981 RMK AO2 SLP087 T00671044

Settings

Location code

InnerDrive.Weather 4.0.6770.0 Release CLR 4.0.30319.42000
Copyright ©2018 Inner Drive Technology. All rights reserved. Portions Copyright ©1986-2018 David Braverman.

Find weather

Site navigation


Skip Navigation Links

Place info

Page info

PayPal - The safer, easier way to pay online!

Return home.

Copyright ©2021 Inner Drive Technology. Purveyors of fine, hand-crafted computer software. Page printed 2021-12-03T10:13:15 UTC.